Airfield :







YOU CAN JOIN US ON...

 
LOGIN :

Register | Disclaimer

   EN    FR    IT 

 









Legend :    VFR   Marginal VFR   IFR   Intensive IFR   Very Intensive IFR
Visi :
Ceiling :
>= 8 km
>= 3000ft
5 to 8 km
1000 to 3000 ft
1500m to 5 km
500 to 1000 ft
800 to 1500m
200 to 500 ft
< 800m
< 200 ft
Symbols :   Thunderstorms  Fog  Heavy snow  Heavy precipitations  Wind > 20 kt






- Airport Elevation : 357 ft
- IATA code : YSJ


CYSJ - Saint John

CURRENT METAR :
  • 250800Z 21002KT 15SM R05/3000VP6000FT/U BCFG SKC 05/05 A3044 RMK SLP313

EXPIRED METARs :
  • 250700Z 00000KT 15SM BCFG SKC 05/05 A3045 RMK SLP313
  • 250600Z 19002KT 15SM R05/4000VP6000FT/D SKC 09/09 A3045 RMK SLP313

TAF TAF CYSJ
Valid from the 25 at 06:00 until the 25 at 18:00 UTC


250538Z 2506/2518 20005KT P6SM SKC
PROB40 2506/2512 1/2SM FG VV002
FM251200 20010KT P6SM FEW020 OVC040
TEMPO 2512/2516 OVC020
FM251600 20012KT P6SM -SHRA OVC020
TEMPO 2516/2518 3SM -DZ BR SCT008 OVC015 RMK NXT FCST BY 251200Z
CZQM FIR / North America



MET'MAP, your aeronautical weather chart ! - Copyright ORBIFLY December 2007 - Disclaimer

ORBIFLY MET'MAP TEAM :

Programming & Development : Alexandra Zaïnal
Concept & original design : Baudouin d'Aumeries
Assistance for programming : Marc-Olivier Méhu
Technical & hardware support : Manuel Goepfert

Contact : metmap@orbifly.com




SOURCES & CREDITS :

   NOAA